createdAt,value
2024-02-05T00:00:56.103Z,1634.00
2024-02-05T00:01:56.121Z,1668.00
2024-02-05T00:02:55.894Z,1682.00
2024-02-05T00:03:55.913Z,1679.00
2024-02-05T00:04:55.891Z,1665.00
2024-02-05T00:05:55.870Z,1655.00
2024-02-05T00:06:56.034Z,1660.00
2024-02-05T00:07:58.964Z,1668.00
2024-02-05T00:08:55.889Z,1665.00
2024-02-05T00:09:55.875Z,1646.00
2024-02-05T00:10:55.830Z,1653.00
2024-02-05T00:11:55.818Z,1663.00
2024-02-05T00:12:55.851Z,1660.00
2024-02-05T00:13:55.779Z,1651.00
2024-02-05T00:14:55.746Z,1654.00
2024-02-05T00:15:55.782Z,1667.00
2024-02-05T00:16:55.719Z,1691.00
2024-02-05T00:17:55.757Z,1641.00
2024-02-05T00:18:55.736Z,1644.00
2024-02-05T00:19:55.770Z,1670.00
2024-02-05T00:20:55.673Z,1690.00
2024-02-05T00:21:55.715Z,1691.00
2024-02-05T00:22:55.653Z,1688.00
2024-02-05T00:23:55.651Z,1692.00
2024-02-05T00:24:55.643Z,1685.00
2024-02-05T00:25:55.592Z,1726.00
2024-02-05T00:26:55.579Z,1761.00
2024-02-05T00:27:55.553Z,1774.00
2024-02-05T00:28:55.556Z,1773.00
2024-02-05T00:29:55.520Z,1793.00
2024-02-05T00:30:55.527Z,1755.00
2024-02-05T00:31:55.494Z,1707.00
2024-02-05T00:32:55.571Z,1693.00
2024-02-05T00:33:55.512Z,1683.00
2024-02-05T00:34:55.457Z,1654.00
2024-02-05T00:35:55.400Z,1691.00
2024-02-05T00:36:55.412Z,1680.00
2024-02-05T00:37:55.369Z,1672.00
2024-02-05T00:38:55.367Z,1654.00
2024-02-05T00:39:55.368Z,1671.00
2024-02-05T00:40:55.332Z,1690.00
2024-02-05T00:41:55.318Z,1687.00
2024-02-05T00:42:55.323Z,1647.00
2024-02-05T00:43:55.282Z,1634.00
2024-02-05T00:44:55.268Z,1575.00
2024-02-05T00:45:55.273Z,1536.00
2024-02-05T00:46:55.183Z,1539.00
2024-02-05T00:47:55.216Z,1540.00
2024-02-05T00:48:55.305Z,1529.00
2024-02-05T00:49:55.196Z,1541.00
2024-02-05T00:50:55.107Z,1549.00
2024-02-05T00:51:55.104Z,1574.00
2024-02-05T00:52:55.047Z,1589.00
2024-02-05T00:53:55.012Z,1581.00
2024-02-05T00:54:54.992Z,1579.00
2024-02-05T00:55:54.954Z,1578.00
2024-02-05T00:56:54.940Z,1556.00
2024-02-05T00:57:55.081Z,1561.00
2024-02-05T00:58:55.061Z,1518.00
2024-02-05T00:59:55.060Z,1493.00
2024-02-05T01:00:55.160Z,1484.00
2024-02-05T01:01:55.363Z,1486.00
2024-02-05T01:02:55.152Z,1499.00
2024-02-05T01:03:55.236Z,1502.00
2024-02-05T01:04:55.316Z,1562.00
2024-02-05T01:05:58.734Z,1599.00
2024-02-05T01:06:55.251Z,1600.00
2024-02-05T01:07:55.160Z,1606.00
2024-02-05T01:08:55.088Z,1614.00
2024-02-05T01:09:55.079Z,1605.00
2024-02-05T01:10:55.013Z,1607.00
2024-02-05T01:11:54.996Z,1590.00
2024-02-05T01:12:55.014Z,1585.00
2024-02-05T01:13:54.950Z,1548.00
2024-02-05T01:14:54.916Z,1507.00
2024-02-05T01:15:54.918Z,1474.00
2024-02-05T01:16:54.862Z,1445.00
2024-02-05T01:17:54.884Z,1448.00
2024-02-05T01:18:54.862Z,1460.00
2024-02-05T01:19:54.799Z,1424.00
2024-02-05T01:20:54.761Z,1425.00
2024-02-05T01:21:54.747Z,1430.00
2024-02-05T01:22:54.679Z,1435.00
2024-02-05T01:23:54.655Z,1463.00
2024-02-05T01:24:54.697Z,1504.00
2024-02-05T01:25:54.621Z,1477.00
2024-02-05T01:26:54.588Z,1427.00
2024-02-05T01:27:54.614Z,1402.00
2024-02-05T01:28:54.547Z,1325.00
2024-02-05T01:29:54.530Z,1277.00
2024-02-05T01:30:54.532Z,1262.00
2024-02-05T01:31:54.542Z,1258.00
2024-02-05T01:32:54.545Z,1311.00
2024-02-05T01:33:54.535Z,1321.00
2024-02-05T01:34:54.635Z,1316.00
2024-02-05T01:35:54.516Z,1323.00
2024-02-05T01:36:54.589Z,1326.00
2024-02-05T01:37:54.635Z,1367.00
2024-02-05T01:38:54.620Z,1334.00
2024-02-05T01:39:54.670Z,1328.00
2024-02-05T01:40:54.700Z,1339.00
2024-02-05T01:41:54.726Z,1338.00
2024-02-05T01:42:54.809Z,1330.00
2024-02-05T01:43:54.831Z,1304.00
2024-02-05T01:44:54.847Z,1325.00
2024-02-05T01:45:54.888Z,1315.00
2024-02-05T01:46:54.917Z,1331.00
2024-02-05T01:47:55.000Z,1201.00
2024-02-05T01:48:55.030Z,1157.00
2024-02-05T01:49:55.129Z,1171.00
2024-02-05T01:50:55.024Z,1178.00
2024-02-05T01:51:55.060Z,1201.00
2024-02-05T01:52:55.042Z,1202.00
2024-02-05T01:53:55.092Z,1206.00
2024-02-05T01:54:55.160Z,1213.00
2024-02-05T01:55:55.143Z,1143.00
2024-02-05T01:56:55.175Z,1123.00
2024-02-05T01:57:55.235Z,1116.00
2024-02-05T01:58:55.256Z,1169.00
2024-02-05T01:59:55.250Z,1185.00
2024-02-05T02:00:55.381Z,1238.00
2024-02-05T02:01:55.473Z,1255.00
2024-02-05T02:02:55.345Z,1268.00
2024-02-05T02:03:55.484Z,1248.00
2024-02-05T02:04:55.427Z,1254.00
2024-02-05T02:05:55.465Z,1243.00
2024-02-05T02:06:55.466Z,1264.00
2024-02-05T02:07:55.456Z,1314.00
2024-02-05T02:08:55.453Z,1344.00
2024-02-05T02:09:55.515Z,1327.00
2024-02-05T02:10:55.411Z,1358.00
2024-02-05T02:11:55.412Z,1350.00
2024-02-05T02:12:55.426Z,1381.00
2024-02-05T02:13:55.447Z,1415.00
2024-02-05T02:14:55.428Z,1427.00
2024-02-05T02:15:55.463Z,1461.00
2024-02-05T02:16:55.427Z,1488.00
2024-02-05T02:17:55.446Z,1505.00
2024-02-05T02:18:55.460Z,1521.00
2024-02-05T02:19:55.430Z,1513.00
2024-02-05T02:20:55.345Z,1514.00
2024-02-05T02:21:55.371Z,1515.00
2024-02-05T02:22:55.305Z,1517.00
2024-02-05T02:23:55.266Z,1519.00
2024-02-05T02:24:55.241Z,1478.00
2024-02-05T02:25:55.215Z,1493.00
2024-02-05T02:26:55.179Z,1491.00
2024-02-05T02:27:55.210Z,1474.00
2024-02-05T02:28:55.141Z,1461.00
2024-02-05T02:29:55.159Z,1425.00
2024-02-05T02:30:55.129Z,1411.00
2024-02-05T02:31:55.043Z,1421.00
2024-02-05T02:32:55.126Z,1449.00
2024-02-05T02:33:55.155Z,1465.00
2024-02-05T02:34:55.108Z,1466.00
2024-02-05T02:35:54.964Z,1490.00
2024-02-05T02:36:55.007Z,1506.00
2024-02-05T02:37:54.909Z,1519.00
2024-02-05T02:38:54.894Z,1538.00
2024-02-05T02:39:54.885Z,1541.00
2024-02-05T02:40:54.860Z,1525.00
2024-02-05T02:41:54.840Z,1497.00
2024-02-05T02:42:54.858Z,1497.00
2024-02-05T02:43:54.848Z,1475.00
2024-02-05T02:44:54.815Z,1484.00
2024-02-05T02:45:54.866Z,1476.00
2024-02-05T02:46:54.859Z,1461.00
2024-02-05T02:47:54.891Z,1475.00
2024-02-05T02:48:56.022Z,1452.00
2024-02-05T02:49:54.950Z,1449.00
2024-02-05T02:50:54.975Z,1453.00
2024-02-05T02:51:55.032Z,1447.00
2024-02-05T02:52:55.048Z,1413.00
2024-02-05T02:53:55.016Z,1387.00
2024-02-05T02:54:55.045Z,1333.00
2024-02-05T02:55:55.076Z,1306.00
2024-02-05T02:56:55.129Z,1331.00
2024-02-05T02:57:55.180Z,1411.00
2024-02-05T02:58:55.210Z,1458.00
2024-02-05T02:59:55.202Z,1484.00
2024-02-05T03:00:55.300Z,1520.00
2024-02-05T03:01:55.371Z,1512.00
2024-02-05T03:02:55.268Z,1470.00
2024-02-05T03:03:55.381Z,1439.00
2024-02-05T03:04:55.444Z,1444.00
2024-02-05T03:05:55.373Z,1471.00
2024-02-05T03:06:55.399Z,1477.00
2024-02-05T03:07:55.420Z,1438.00
2024-02-05T03:08:55.486Z,1403.00
2024-02-05T03:09:55.533Z,1400.00
2024-02-05T03:10:55.550Z,1406.00
2024-02-05T03:11:55.554Z,1413.00
2024-02-05T03:12:55.569Z,1389.00
2024-02-05T03:13:55.582Z,1390.00
2024-02-05T03:14:55.638Z,1421.00
2024-02-05T03:15:55.675Z,1411.00
2024-02-05T03:16:55.702Z,1398.00
2024-02-05T03:17:55.812Z,1408.00
2024-02-05T03:18:55.832Z,1409.00
2024-02-05T03:19:55.878Z,1409.00
2024-02-05T03:20:55.700Z,1413.00
2024-02-05T03:21:55.705Z,1415.00
2024-02-05T03:23:02.613Z,1437.00
2024-02-05T03:23:56.669Z,1410.00
2024-02-05T03:24:55.710Z,1419.00
2024-02-05T03:25:55.613Z,1431.00
2024-02-05T03:26:55.577Z,1445.00
2024-02-05T03:27:55.570Z,1457.00
2024-02-05T03:28:55.575Z,1464.00
2024-02-05T03:29:55.535Z,1427.00
2024-02-05T03:30:55.629Z,1404.00
2024-02-05T03:31:55.544Z,1409.00
2024-02-05T03:32:55.455Z,1416.00
2024-02-05T03:33:55.565Z,1412.00
2024-02-05T03:34:55.451Z,1382.00
2024-02-05T03:35:55.393Z,1311.00
2024-02-05T03:36:55.467Z,1328.00
2024-02-05T03:37:55.380Z,1358.00
2024-02-05T03:38:55.351Z,1351.00
2024-02-05T03:39:55.322Z,1337.00
2024-02-05T03:40:55.356Z,1337.00
2024-02-05T03:41:55.385Z,1349.00
2024-02-05T03:42:55.550Z,1319.00
2024-02-05T03:43:55.427Z,1330.00
2024-02-05T03:44:55.430Z,1323.00
2024-02-05T03:45:55.567Z,1346.00
2024-02-05T03:46:55.530Z,1371.00
2024-02-05T03:47:55.560Z,1367.00
2024-02-05T03:48:55.678Z,1370.00
2024-02-05T03:49:55.677Z,1392.00
2024-02-05T03:50:55.512Z,1360.00
2024-02-05T03:51:55.541Z,1355.00
2024-02-05T03:52:55.542Z,1370.00
2024-02-05T03:53:55.486Z,1385.00
2024-02-05T03:54:55.543Z,1355.00
2024-02-05T03:55:55.557Z,1349.00
2024-02-05T03:56:55.592Z,1313.00
2024-02-05T03:57:55.643Z,1276.00
2024-02-05T03:58:55.664Z,1220.00
2024-02-05T03:59:55.700Z,1159.00
2024-02-05T04:00:55.791Z,1211.00
2024-02-05T04:01:55.913Z,1308.00
2024-02-05T04:02:55.816Z,1350.00
2024-02-05T04:03:55.984Z,1360.00
2024-02-05T04:04:55.918Z,1338.00
2024-02-05T04:05:55.959Z,1371.00
2024-02-05T04:06:55.995Z,1432.00
2024-02-05T04:07:56.002Z,1561.00
2024-02-05T04:08:56.030Z,1648.00
2024-02-05T04:09:56.069Z,1658.00
2024-02-05T04:10:56.095Z,1670.00
2024-02-05T04:11:56.136Z,1623.00
2024-02-05T04:12:56.351Z,1610.00
2024-02-05T04:13:56.273Z,1553.00
2024-02-05T04:14:56.296Z,1597.00
2024-02-05T04:15:56.289Z,1576.00
2024-02-05T04:16:56.269Z,1542.00
2024-02-05T04:17:56.311Z,1547.00
2024-02-05T04:18:56.314Z,1456.00
2024-02-05T04:19:56.291Z,1384.00
2024-02-05T04:20:56.242Z,1342.00
2024-02-05T04:21:56.262Z,1370.00
2024-02-05T04:22:56.215Z,1326.00
2024-02-05T04:23:56.195Z,1316.00
2024-02-05T04:24:56.192Z,1316.00
2024-02-05T04:25:56.192Z,1307.00
2024-02-05T04:26:56.154Z,1310.00
2024-02-05T04:27:56.203Z,1297.00
2024-02-05T04:28:56.117Z,1319.00
2024-02-05T04:29:56.136Z,1323.00
2024-02-05T04:30:56.160Z,1349.00
2024-02-05T04:31:56.125Z,1375.00
2024-02-05T04:32:56.187Z,1385.00
2024-02-05T04:33:56.171Z,1405.00
2024-02-05T04:34:56.217Z,1427.00
2024-02-05T04:35:56.127Z,1474.00
2024-02-05T04:36:56.204Z,1500.00
2024-02-05T04:37:56.160Z,1502.00
2024-02-05T04:38:56.207Z,1486.00
2024-02-05T04:39:56.280Z,1450.00
2024-02-05T04:40:56.252Z,1440.00
2024-02-05T04:41:56.294Z,1458.00
2024-02-05T04:42:56.348Z,1460.00
2024-02-05T04:43:56.316Z,1475.00
2024-02-05T04:44:56.330Z,1471.00
2024-02-05T04:45:56.382Z,1443.00
2024-02-05T04:46:56.378Z,1468.00
2024-02-05T04:47:56.452Z,1502.00
2024-02-05T04:48:56.562Z,1527.00
2024-02-05T04:49:56.581Z,1542.00
2024-02-05T04:50:56.508Z,1546.00
2024-02-05T04:51:56.553Z,1591.00
2024-02-05T04:52:56.568Z,1575.00
2024-02-05T04:53:56.605Z,1595.00
2024-02-05T04:54:56.695Z,1611.00
2024-02-05T04:55:56.689Z,1593.00
2024-02-05T04:56:56.709Z,1580.00
2024-02-05T04:57:56.810Z,1495.00
2024-02-05T04:58:56.856Z,1448.00
2024-02-05T04:59:56.865Z,1408.00
2024-02-05T05:00:56.898Z,1409.00
2024-02-05T05:01:56.964Z,1414.00
2024-02-05T05:02:56.842Z,1422.00
2024-02-05T05:03:56.862Z,1432.00
2024-02-05T05:04:56.865Z,1472.00
2024-02-05T05:05:56.837Z,1522.00
2024-02-05T05:06:56.872Z,1539.00
2024-02-05T05:07:56.867Z,1552.00
2024-02-05T05:08:56.812Z,1539.00
2024-02-05T05:09:56.810Z,1532.00
2024-02-05T05:10:56.775Z,1425.00
2024-02-05T05:11:56.741Z,1404.00
2024-02-05T05:12:56.774Z,1425.00
2024-02-05T05:13:56.742Z,1427.00
2024-02-05T05:14:56.719Z,1435.00
2024-02-05T05:15:56.742Z,1453.00
2024-02-05T05:16:56.750Z,1481.00
2024-02-05T05:17:56.779Z,1429.00
2024-02-05T05:18:56.781Z,1442.00
2024-02-05T05:19:56.729Z,1426.00
2024-02-05T05:20:56.696Z,1438.00
2024-02-05T05:21:56.750Z,1462.00
2024-02-05T05:22:57.166Z,1504.00
2024-02-05T05:23:56.662Z,1561.00
2024-02-05T05:24:56.650Z,1592.00
2024-02-05T05:25:56.625Z,1680.00
2024-02-05T05:26:56.598Z,1712.00
2024-02-05T05:27:56.615Z,1719.00
2024-02-05T05:28:56.599Z,1740.00
2024-02-05T05:29:56.602Z,1759.00
2024-02-05T05:30:56.639Z,1787.00
2024-02-05T05:31:56.619Z,1738.00
2024-02-05T05:32:56.668Z,1662.00
2024-02-05T05:33:56.718Z,1609.00
2024-02-05T05:34:56.703Z,1553.00
2024-02-05T05:36:04.500Z,600.00
2024-02-05T05:37:04.519Z,600.00
2024-02-05T05:38:04.567Z,600.00
2024-02-05T05:39:04.872Z,600.00
2024-02-05T05:40:04.514Z,600.00
2024-02-05T05:41:04.485Z,603.00
2024-02-05T05:42:04.501Z,612.00
2024-02-05T05:43:04.435Z,651.00
2024-02-05T05:44:04.443Z,735.00
2024-02-05T05:45:04.473Z,803.00
2024-02-05T05:46:04.467Z,848.00
2024-02-05T05:47:04.443Z,875.00
2024-02-05T05:48:04.443Z,918.00
2024-02-05T05:49:04.968Z,969.00
2024-02-05T05:50:04.539Z,1067.00
2024-02-05T05:51:04.380Z,1075.00
2024-02-05T05:52:04.455Z,1078.00
2024-02-05T05:53:04.503Z,1072.00
2024-02-05T05:54:04.432Z,1082.00
2024-02-05T05:55:04.444Z,1114.00
2024-02-05T05:56:04.379Z,1118.00
2024-02-05T05:57:04.369Z,1082.00
2024-02-05T05:58:04.377Z,1072.00
2024-02-05T05:59:04.356Z,1090.00
2024-02-05T06:00:04.344Z,1182.00
2024-02-05T06:01:04.382Z,1205.00
2024-02-05T06:02:04.399Z,1208.00
2024-02-05T06:03:04.295Z,1180.00
2024-02-05T06:04:04.413Z,1356.00
2024-02-05T06:05:05.857Z,1527.00
2024-02-05T06:06:04.320Z,1528.00
2024-02-05T06:07:04.312Z,1439.00
2024-02-05T06:08:04.250Z,1346.00
2024-02-05T06:09:04.271Z,1297.00
2024-02-05T06:10:04.287Z,1245.00
2024-02-05T06:11:04.329Z,1207.00
2024-02-05T06:12:04.229Z,1159.00
2024-02-05T06:13:04.266Z,1188.00
2024-02-05T06:14:04.270Z,1200.00
2024-02-05T06:15:04.228Z,1202.00
2024-02-05T06:16:04.244Z,1200.00
2024-02-05T06:17:04.204Z,1227.00
2024-02-05T06:18:04.261Z,1243.00
2024-02-05T06:19:04.292Z,1237.00
2024-02-05T06:20:04.194Z,1238.00
2024-02-05T06:21:04.164Z,1242.00
2024-02-05T06:22:04.174Z,1248.00
2024-02-05T06:23:04.145Z,1249.00
2024-02-05T06:24:04.145Z,1241.00
2024-02-05T06:25:04.124Z,1241.00
2024-02-05T06:26:04.080Z,1228.00
2024-02-05T06:27:04.057Z,1231.00
2024-02-05T06:28:07.295Z,1266.00
2024-02-05T06:29:05.103Z,1267.00
2024-02-05T06:30:04.065Z,1275.00
2024-02-05T06:31:04.166Z,1274.00
2024-02-05T06:32:04.131Z,1313.00
2024-02-05T06:33:04.383Z,1395.00
2024-02-05T06:34:08.566Z,1489.00
2024-02-05T06:35:05.156Z,1279.00
2024-02-05T06:36:03.999Z,1316.00
2024-02-05T06:37:04.074Z,1369.00
2024-02-05T06:38:03.994Z,1422.00
2024-02-05T06:39:04.144Z,1474.00
2024-02-05T06:40:04.195Z,1462.00
2024-02-05T06:41:04.080Z,1433.00
2024-02-05T06:42:04.116Z,1422.00
2024-02-05T06:43:04.239Z,1422.00
2024-02-05T06:44:04.119Z,1423.00
2024-02-05T06:45:04.081Z,1506.00
2024-02-05T06:46:04.237Z,1740.00
2024-02-05T06:47:04.080Z,1984.00
2024-02-05T06:48:04.136Z,1940.00
2024-02-05T06:49:04.081Z,1846.00
2024-02-05T06:50:06.885Z,1802.00
2024-02-05T06:51:04.001Z,1789.00
2024-02-05T06:52:04.032Z,1749.00
2024-02-05T06:53:04.122Z,1692.00
2024-02-05T06:54:03.955Z,1640.00
2024-02-05T06:55:03.973Z,1578.00
2024-02-05T06:56:03.947Z,1543.00
2024-02-05T06:57:04.016Z,1539.00
2024-02-05T06:58:04.032Z,1527.00
2024-02-05T06:59:03.908Z,1508.00
2024-02-05T07:00:03.881Z,1507.00
2024-02-05T07:01:03.927Z,1497.00
2024-02-05T07:02:06.453Z,1498.00
2024-02-05T07:03:03.807Z,1501.00
2024-02-05T07:04:03.882Z,1517.00
2024-02-05T07:05:04.005Z,1534.00
2024-02-05T07:06:04.089Z,1468.00
2024-02-05T07:07:03.988Z,1464.00
2024-02-05T07:08:03.754Z,1615.00
2024-02-05T07:09:03.723Z,1700.00
2024-02-05T07:10:03.787Z,1787.00
2024-02-05T07:11:03.714Z,1788.00
2024-02-05T07:12:03.697Z,1667.00
2024-02-05T07:13:03.723Z,1517.00
2024-02-05T07:14:05.389Z,1460.00
2024-02-05T07:15:03.689Z,1511.00
2024-02-05T07:16:03.638Z,1561.00
2024-02-05T07:17:03.667Z,1559.00
2024-02-05T07:18:03.686Z,1503.00
2024-02-05T07:19:03.659Z,1391.00
2024-02-05T07:20:03.706Z,1371.00
2024-02-05T07:21:03.548Z,1395.00
2024-02-05T07:22:06.398Z,1389.00
2024-02-05T07:23:04.778Z,1348.00
2024-02-05T07:24:03.956Z,1346.00
2024-02-05T07:25:04.431Z,1333.00
2024-02-05T07:26:03.433Z,1323.00
2024-02-05T07:27:03.459Z,1364.00
2024-02-05T07:28:03.413Z,1430.00
2024-02-05T07:29:03.387Z,1433.00
2024-02-05T07:30:03.395Z,1434.00
2024-02-05T07:31:03.399Z,1390.00
2024-02-05T07:32:03.334Z,1324.00
2024-02-05T07:33:03.306Z,1336.00
2024-02-05T07:34:03.384Z,1311.00
2024-02-05T07:35:03.389Z,1276.00
2024-02-05T07:36:03.211Z,1314.00
2024-02-05T07:37:03.263Z,1294.00
2024-02-05T07:38:03.205Z,1275.00
2024-02-05T07:39:03.413Z,1233.00
2024-02-05T07:40:03.138Z,1222.00
2024-02-05T07:41:05.904Z,1223.00
2024-02-05T07:42:03.112Z,1227.00
2024-02-05T07:43:03.143Z,1223.00
2024-02-05T07:44:03.409Z,1218.00
2024-02-05T07:45:03.332Z,1193.00
2024-02-05T07:46:03.052Z,1180.00
2024-02-05T07:47:03.051Z,1223.00
2024-02-05T07:48:03.098Z,1231.00
2024-02-05T07:49:03.094Z,1263.00
2024-02-05T07:50:03.064Z,1353.00
2024-02-05T07:51:02.981Z,1475.00
2024-02-05T07:52:03.007Z,1486.00
2024-02-05T07:53:02.936Z,1458.00
2024-02-05T07:54:03.032Z,1401.00
2024-02-05T07:55:06.700Z,1335.00
2024-02-05T07:56:04.669Z,1307.00
2024-02-05T07:57:05.385Z,1210.00
2024-02-05T07:58:03.142Z,1127.00
2024-02-05T07:59:03.078Z,1108.00
2024-02-05T08:00:03.029Z,1081.00
2024-02-05T08:01:04.326Z,1096.00
2024-02-05T08:02:05.947Z,1103.00
2024-02-05T08:03:03.068Z,1119.00
2024-02-05T08:04:03.089Z,1138.00
2024-02-05T08:05:03.327Z,1216.00
2024-02-05T08:06:02.894Z,1216.00
2024-02-05T08:07:02.919Z,1236.00
2024-02-05T08:08:02.949Z,1171.00
2024-02-05T08:09:02.954Z,1127.00
2024-02-05T08:10:03.500Z,1161.00
2024-02-05T08:11:02.954Z,1163.00
2024-02-05T08:12:03.011Z,1172.00
2024-02-05T08:13:05.942Z,1168.00
2024-02-05T08:14:02.986Z,1152.00
2024-02-05T08:15:02.933Z,1168.00
2024-02-05T08:16:03.049Z,1173.00
2024-02-05T08:17:04.557Z,1192.00
2024-02-05T08:18:02.985Z,1193.00
2024-02-05T08:19:02.895Z,1199.00
2024-02-05T08:20:02.835Z,1206.00
2024-02-05T08:21:02.712Z,1210.00
2024-02-05T08:22:03.459Z,1199.00
2024-02-05T08:23:02.634Z,1167.00
2024-02-05T08:24:02.617Z,1198.00
2024-02-05T08:25:02.677Z,1203.00
2024-02-05T08:26:02.562Z,1226.00
2024-02-05T08:27:02.517Z,1261.00
2024-02-05T08:28:02.550Z,1318.00
2024-02-05T08:29:02.510Z,1378.00
2024-02-05T08:30:02.436Z,1399.00
2024-02-05T08:31:02.453Z,1347.00
2024-02-05T08:32:04.912Z,1325.00
2024-02-05T08:33:02.616Z,1301.00
2024-02-05T08:34:02.725Z,1252.00
2024-02-05T08:35:02.800Z,1219.00
2024-02-05T08:36:02.578Z,1248.00
2024-02-05T08:37:02.648Z,1209.00
2024-02-05T08:38:02.609Z,1214.00
2024-02-05T08:39:02.999Z,1391.00
2024-02-05T08:40:02.655Z,1422.00
2024-02-05T08:41:02.604Z,1416.00
2024-02-05T08:42:12.027Z,1442.00
2024-02-05T08:43:03.626Z,1448.00
2024-02-05T08:44:02.485Z,1480.00
2024-02-05T08:45:04.770Z,1508.00
2024-02-05T08:46:02.435Z,1445.00
2024-02-05T08:47:02.325Z,1468.00
2024-02-05T08:48:02.324Z,1489.00
2024-02-05T08:49:02.345Z,1553.00
2024-02-05T08:50:02.452Z,1564.00
2024-02-05T08:51:02.143Z,1591.00
2024-02-05T08:52:02.091Z,1604.00
2024-02-05T08:53:02.032Z,1513.00
2024-02-05T08:54:02.013Z,1387.00
2024-02-05T08:55:01.930Z,1335.00
2024-02-05T08:56:01.873Z,1346.00
2024-02-05T08:57:01.840Z,1261.00
2024-02-05T08:58:01.885Z,1195.00
2024-02-05T08:59:01.797Z,1121.00
2024-02-05T09:00:01.699Z,1174.00
2024-02-05T09:01:02.463Z,1177.00
2024-02-05T09:02:01.909Z,1198.00
2024-02-05T09:03:02.441Z,1227.00
2024-02-05T09:04:01.473Z,1188.00
2024-02-05T09:05:01.710Z,1188.00
2024-02-05T09:06:01.965Z,1150.00
2024-02-05T09:07:01.667Z,1149.00
2024-02-05T09:08:01.346Z,1192.00
2024-02-05T09:09:01.165Z,1212.00
2024-02-05T09:10:01.245Z,1157.00
2024-02-05T09:11:01.709Z,1109.00
2024-02-05T09:12:06.337Z,1005.00
2024-02-05T09:13:02.031Z,958.00
2024-02-05T09:14:01.010Z,956.00
2024-02-05T09:15:01.723Z,931.00
2024-02-05T09:16:00.950Z,1034.00
2024-02-05T09:17:03.995Z,1588.00
2024-02-05T09:18:00.806Z,1882.00
2024-02-05T09:19:00.801Z,1991.00
2024-02-05T09:20:00.733Z,1999.00
2024-02-05T09:21:00.575Z,1850.00
2024-02-05T09:22:00.554Z,1798.00
2024-02-05T09:23:00.480Z,1709.00
2024-02-05T09:24:00.350Z,1554.00
2024-02-05T09:25:00.770Z,1423.00
2024-02-05T09:26:00.202Z,1398.00
2024-02-05T09:27:00.147Z,1394.00
2024-02-05T09:28:00.101Z,1223.00
2024-02-05T09:28:59.984Z,1107.00
2024-02-05T09:29:59.963Z,992.00
2024-02-05T09:31:08.883Z,888.00
2024-02-05T09:32:01.001Z,889.00
2024-02-05T09:32:59.771Z,886.00
2024-02-05T09:33:59.680Z,888.00
2024-02-05T09:34:59.680Z,887.00
2024-02-05T09:36:00.537Z,773.00
2024-02-05T09:36:59.722Z,759.00
2024-02-05T09:37:59.891Z,738.00
2024-02-05T09:38:59.916Z,730.00
2024-02-05T09:39:59.343Z,727.00
2024-02-05T09:40:59.189Z,706.00
2024-02-05T09:41:59.228Z,745.00
2024-02-05T09:42:59.126Z,735.00
2024-02-05T09:43:59.037Z,700.00
2024-02-05T09:44:58.965Z,649.00
2024-02-05T09:45:58.893Z,658.00
2024-02-05T09:46:58.829Z,659.00
2024-02-05T09:47:58.810Z,681.00
2024-02-05T09:48:58.888Z,739.00
2024-02-05T09:49:58.726Z,881.00
2024-02-05T09:51:00.177Z,1028.00
2024-02-05T09:51:58.490Z,991.00
2024-02-05T09:52:58.337Z,939.00
2024-02-05T09:54:07.704Z,1004.00
2024-02-05T09:54:59.268Z,863.00
2024-02-05T09:55:58.135Z,796.00
2024-02-05T09:56:58.058Z,837.00
2024-02-05T09:57:58.064Z,829.00
2024-02-05T09:58:57.898Z,810.00
2024-02-05T09:59:57.950Z,878.00
2024-02-05T10:00:57.791Z,1051.00
2024-02-05T10:01:57.709Z,1165.00
2024-02-05T10:02:57.553Z,1021.00
2024-02-05T10:03:57.595Z,878.00
2024-02-05T10:04:57.608Z,920.00
2024-02-05T10:05:57.318Z,934.00
2024-02-05T10:06:58.007Z,951.00
2024-02-05T10:07:57.175Z,979.00
2024-02-05T10:08:57.064Z,945.00
2024-02-05T10:09:56.977Z,938.00
2024-02-05T10:10:56.879Z,941.00
2024-02-05T10:11:56.920Z,964.00
2024-02-05T10:12:56.724Z,1030.00
2024-02-05T10:13:56.628Z,1133.00
2024-02-05T10:14:56.505Z,1367.00
2024-02-05T10:15:56.424Z,1316.00
2024-02-05T10:16:56.349Z,1214.00
2024-02-05T10:17:56.289Z,1072.00
2024-02-05T10:18:56.209Z,798.00
2024-02-05T10:19:56.136Z,700.00
2024-02-05T10:20:55.990Z,631.00
2024-02-05T10:21:55.907Z,847.00
2024-02-05T10:22:55.867Z,1029.00
2024-02-05T10:23:55.821Z,890.00
2024-02-05T10:24:55.737Z,981.00
2024-02-05T10:25:55.620Z,1047.00
2024-02-05T10:26:55.683Z,988.00
2024-02-05T10:27:55.581Z,1051.00
2024-02-05T10:28:55.673Z,1147.00
2024-02-05T10:29:55.542Z,1078.00
2024-02-05T10:30:55.528Z,958.00
2024-02-05T10:31:55.464Z,853.00
2024-02-05T10:32:55.427Z,739.00
2024-02-05T10:33:55.434Z,641.00
2024-02-05T10:34:55.672Z,617.00
2024-02-05T10:35:55.090Z,604.00
2024-02-05T10:36:55.037Z,566.00
2024-02-05T10:37:54.934Z,447.00
2024-02-05T10:38:54.741Z,405.00
2024-02-05T10:39:54.773Z,400.00
2024-02-05T10:40:54.535Z,400.00
2024-02-05T10:41:54.427Z,400.00
2024-02-05T10:42:54.335Z,400.00
2024-02-05T10:43:54.170Z,400.00
2024-02-05T10:44:54.092Z,400.00
2024-02-05T10:45:54.043Z,400.00
2024-02-05T10:46:55.695Z,400.00
2024-02-05T10:47:53.842Z,400.00
2024-02-05T10:48:53.724Z,400.00
2024-02-05T10:49:53.683Z,400.00
2024-02-05T10:50:53.425Z,400.00
2024-02-05T10:51:53.368Z,400.00
2024-02-05T10:52:53.935Z,400.00
2024-02-05T10:53:53.125Z,400.00
2024-02-05T10:54:53.028Z,400.00
2024-02-05T10:55:52.869Z,400.00
2024-02-05T10:56:52.725Z,400.00
2024-02-05T10:57:52.782Z,400.00
2024-02-05T10:58:52.516Z,400.00
2024-02-05T10:59:52.369Z,400.00
2024-02-05T11:00:52.338Z,400.00
2024-02-05T11:01:52.242Z,400.00
2024-02-05T11:02:52.009Z,400.00
2024-02-05T11:03:51.864Z,400.00
2024-02-05T11:04:51.814Z,400.00
2024-02-05T11:05:52.481Z,400.00
2024-02-05T11:06:51.737Z,443.00
2024-02-05T11:07:51.385Z,463.00
2024-02-05T11:08:51.209Z,458.00
2024-02-05T11:09:51.233Z,516.00
2024-02-05T11:10:51.012Z,583.00
2024-02-05T11:11:50.884Z,578.00
2024-02-05T11:12:50.881Z,599.00
2024-02-05T11:13:50.688Z,600.00
2024-02-05T11:14:50.658Z,600.00
2024-02-05T11:15:50.574Z,600.00
2024-02-05T11:16:50.510Z,542.00
2024-02-05T11:17:50.371Z,540.00
2024-02-05T11:18:50.318Z,548.00
2024-02-05T11:19:50.115Z,562.00
2024-02-05T11:20:49.952Z,576.00
2024-02-05T11:21:52.981Z,600.00
2024-02-05T11:22:50.787Z,600.00
2024-02-05T11:23:49.650Z,603.00
2024-02-05T11:24:49.618Z,607.00
2024-02-05T11:25:49.509Z,623.00
2024-02-05T11:26:49.349Z,619.00
2024-02-05T11:27:49.287Z,630.00
2024-02-05T11:28:49.187Z,634.00
2024-02-05T11:29:49.355Z,598.00
2024-02-05T11:30:49.007Z,601.00
2024-02-05T11:31:48.910Z,601.00
2024-02-05T11:32:48.871Z,604.00
2024-02-05T11:33:48.777Z,606.00
2024-02-05T11:34:48.787Z,608.00
2024-02-05T11:35:49.503Z,562.00
2024-02-05T11:36:48.483Z,576.00
2024-02-05T11:37:48.507Z,599.00
2024-02-05T11:38:48.171Z,637.00
2024-02-05T11:39:48.168Z,652.00
2024-02-05T11:40:47.981Z,656.00
2024-02-05T11:41:47.870Z,627.00
2024-02-05T11:42:47.829Z,649.00
2024-02-05T11:43:47.617Z,619.00
2024-02-05T11:44:47.502Z,600.00
2024-02-05T11:45:47.443Z,601.00
2024-02-05T11:46:47.294Z,606.00
2024-02-05T11:47:48.034Z,619.00
2024-02-05T11:48:47.153Z,601.00
2024-02-05T11:49:47.108Z,608.00
2024-02-05T11:50:46.906Z,619.00
2024-02-05T11:51:46.745Z,630.00
2024-02-05T11:52:46.614Z,624.00
2024-02-05T11:53:47.512Z,649.00
2024-02-05T11:54:46.484Z,639.00
2024-02-05T11:55:46.309Z,652.00
2024-02-05T11:56:46.952Z,693.00
2024-02-05T11:57:46.112Z,716.00
2024-02-05T11:58:45.998Z,725.00
2024-02-05T11:59:50.429Z,671.00
2024-02-05T12:00:45.849Z,672.00
2024-02-05T12:01:45.834Z,676.00
2024-02-05T12:02:45.575Z,689.00
2024-02-05T12:03:45.492Z,663.00
2024-02-05T12:04:45.402Z,670.00
2024-02-05T12:05:45.375Z,685.00
2024-02-05T12:06:45.293Z,673.00
2024-02-05T12:07:45.077Z,654.00
2024-02-05T12:08:44.954Z,655.00
2024-02-05T12:09:44.896Z,656.00
2024-02-05T12:10:44.785Z,658.00